Time;durP1;ratioP1;P1;durP2;ratioP2;P2;SDS_P1;SDS_P2;PMS_P1;PMS_P2;Temp;Humidity;BMP_temperature;BMP_pressure;BME280_temperature;BME280_humidity;BME280_pressure;Samples;Min_cycle;Max_cycle;Signal;HPM_P1;HPM_P2
2023/08/22 00:00:54;;;;;;;18.30;15.43;;;;;;;28.89;48.47;101405.97;6165482;23;20056;-79
2023/08/22 00:03:21;;;;;;;18.35;14.85;;;;;;;28.78;48.40;101393.97;6127050;23;20021;-79
2023/08/22 00:05:48;;;;;;;21.80;16.08;;;;;;;28.70;48.16;101384.22;6141253;23;20725;-80
2023/08/22 00:08:16;;;;;;;21.05;15.00;;;;;;;28.81;48.46;101398.94;6172055;23;20480;-79
2023/08/22 00:10:42;;;;;;;19.83;15.25;;;;;;;28.43;47.92;101314.75;6129923;23;20052;-80
2023/08/22 00:13:09;;;;;;;20.88;15.40;;;;;;;28.88;47.75;101396.09;6142858;23;20074;-78
2023/08/22 00:15:36;;;;;;;19.52;15.52;;;;;;;28.51;47.69;101344.47;6117192;23;20017;-79
2023/08/22 00:18:07;;;;;;;20.70;15.40;;;;;;;28.83;47.57;101387.78;6127032;23;20222;-79
2023/08/22 00:20:44;;;;;;;19.60;15.23;;;;;;;28.97;47.71;101409.16;6121655;23;20315;-80
2023/08/22 00:23:16;;;;;;;20.52;14.55;;;;;;;28.81;47.70;101387.19;6141346;23;20083;-78
2023/08/22 00:25:43;;;;;;;23.75;16.33;;;;;;;28.85;47.91;101394.69;6154952;23;20255;-79
2023/08/22 00:28:10;;;;;;;21.98;15.55;;;;;;;28.96;47.94;101410.25;6139104;23;20031;-80
2023/08/22 00:30:38;;;;;;;18.02;14.80;;;;;;;28.79;48.90;101378.41;6123231;23;20376;-80
2023/08/22 00:33:13;;;;;;;20.27;13.98;;;;;;;28.98;47.87;101399.06;6172309;23;20031;-79
2023/08/22 00:35:45;;;;;;;22.45;15.95;;;;;;;28.97;48.04;101413.78;6146548;23;20108;-78
2023/08/22 00:38:12;;;;;;;20.50;15.90;;;;;;;28.92;48.25;101410.94;6134734;23;20300;-79
2023/08/22 00:40:39;;;;;;;17.33;15.20;;;;;;;28.79;48.20;101381.13;6143136;23;20066;-78
2023/08/22 00:43:06;;;;;;;19.48;16.15;;;;;;;28.86;48.32;101403.69;6156187;23;20020;-79
2023/08/22 00:45:39;;;;;;;21.48;16.52;;;;;;;28.39;48.90;101335.41;6120996;23;20016;-79
2023/08/22 00:48:14;;;;;;;25.75;14.80;;;;;;;28.68;48.98;101389.09;6146838;23;20222;-79
2023/08/22 00:50:47;;;;;;;21.80;14.93;;;;;;;28.70;48.95;101386.16;6118370;23;20092;-80
2023/08/22 00:53:18;;;;;;;25.42;15.27;;;;;;;28.66;48.78;101391.22;6142789;23;20035;-78
2023/08/22 00:55:45;;;;;;;18.92;15.80;;;;;;;28.67;48.94;101392.91;6125115;23;20490;-78
2023/08/22 00:58:14;;;;;;;22.70;15.20;;;;;;;28.07;49.19;101303.81;6128311;23;20861;-79
2023/08/22 01:00:40;;;;;;;20.75;16.05;;;;;;;28.50;49.36;101376.41;6111395;23;20244;-79
2023/08/22 01:03:11;;;;;;;18.77;15.90;;;;;;;28.43;49.66;101369.38;6139044;23;20245;-80
2023/08/22 01:05:47;;;;;;;20.70;15.20;;;;;;;28.39;49.70;101362.72;6142639;23;20300;-79
2023/08/22 01:08:24;;;;;;;19.35;14.93;;;;;;;28.51;49.55;101388.16;6133691;23;20021;-80
2023/08/22 01:10:57;;;;;;;22.25;16.23;;;;;;;28.44;49.53;101381.94;6099157;23;20017;-79
2023/08/22 01:13:32;;;;;;;19.52;15.35;;;;;;;28.42;50.01;101384.91;6152896;23;20028;-80
2023/08/22 01:16:01;;;;;;;19.52;14.90;;;;;;;27.44;49.43;101223.38;6116386;23;20028;-79
2023/08/22 01:18:28;;;;;;;21.05;15.27;;;;;;;28.36;49.68;101377.66;6115178;23;20396;-78
2023/08/22 01:21:04;;;;;;;19.05;14.82;;;;;;;28.39;49.40;101384.56;6117887;23;20424;-79
2023/08/22 01:23:31;;;;;;;21.38;16.02;;;;;;;28.25;49.80;101362.91;6146371;23;20370;-79
2023/08/22 01:25:58;;;;;;;20.08;14.73;;;;;;;28.12;49.26;101346.78;6151818;23;20338;-79
2023/08/22 01:28:28;;;;;;;22.60;15.77;;;;;;;28.34;49.24;101382.53;6125545;23;20193;-80
2023/08/22 01:31:11;;;;;;;19.53;16.03;;;;;;;28.30;49.75;101382.19;6112461;23;20353;-79
2023/08/22 01:33:42;;;;;;;20.13;15.45;;;;;;;28.27;49.16;101377.16;6145515;23;20330;-78
2023/08/22 01:36:11;;;;;;;19.83;15.85;;;;;;;28.17;49.82;101360.53;6141261;23;20559;-80
2023/08/22 01:38:44;;;;;;;19.17;15.95;;;;;;;28.26;49.66;101380.16;6085272;23;20372;-80
2023/08/22 01:41:15;;;;;;;19.65;15.70;;;;;;;28.26;49.90;101380.97;6128650;23;20500;-79
2023/08/22 01:43:43;;;;;;;23.00;15.90;;;;;;;28.01;49.26;101339.41;6131088;23;20017;-80
2023/08/22 01:46:09;;;;;;;18.42;16.02;;;;;;;28.14;49.74;101371.94;6155161;23;20016;-80
2023/08/22 01:48:36;;;;;;;19.70;16.20;;;;;;;28.09;49.74;101348.09;6126511;23;20229;-79
2023/08/22 01:51:06;;;;;;;25.95;15.57;;;;;;;28.11;49.69;101350.59;6137048;23;20074;-79
2023/08/22 01:53:33;;;;;;;21.80;15.60;;;;;;;28.32;49.48;101380.03;6125950;23;20196;-79
2023/08/22 01:56:01;;;;;;;23.25;15.82;;;;;;;28.25;49.15;101365.66;6138517;23;20020;-80
2023/08/22 01:58:27;;;;;;;19.90;14.30;;;;;;;28.34;49.11;101372.44;6121716;23;20460;-79
2023/08/22 02:00:57;;;;;;;17.02;15.05;;;;;;;28.34;49.72;101368.88;6123118;23;20522;-78
2023/08/22 02:03:24;;;;;;;30.25;15.88;;;;;;;28.33;49.30;101362.59;6158578;23;20360;-79
2023/08/22 02:05:51;;;;;;;24.42;15.63;;;;;;;28.36;49.30;101363.19;6183295;23;20020;-80
2023/08/22 02:08:17;;;;;;;22.30;16.45;;;;;;;28.29;49.00;101355.94;6146828;23;20023;-80
2023/08/22 02:10:44;;;;;;;25.92;15.40;;;;;;;28.08;49.18;101329.19;6148595;23;20021;-79
2023/08/22 02:13:13;;;;;;;21.33;14.95;;;;;;;28.17;49.51;101355.09;6161053;23;20031;-80
2023/08/22 02:15:40;;;;;;;21.50;15.93;;;;;;;28.12;49.42;101355.78;6149168;23;20127;-78
2023/08/22 02:18:07;;;;;;;17.60;14.73;;;;;;;28.10;49.34;101348.91;6176693;23;20052;-79
2023/08/22 02:20:33;;;;;;;25.00;16.95;;;;;;;27.68;49.36;101283.44;6149728;23;20044;-79
2023/08/22 02:23:02;;;;;;;21.80;15.75;;;;;;;28.16;51.53;101371.69;6152859;23;20017;-79
2023/08/22 02:25:33;;;;;;;20.02;16.50;;;;;;;28.02;52.16;101324.69;6151784;23;20511;-79
2023/08/22 02:28:03;;;;;;;17.63;15.50;;;;;;;28.08;49.91;101329.19;6114010;23;20137;-80
2023/08/22 02:30:30;;;;;;;24.55;17.65;;;;;;;28.25;49.52;101349.28;6141014;23;20024;-79
2023/08/22 02:33:00;;;;;;;21.42;16.23;;;;;;;28.43;50.15;101369.38;6156870;23;20326;-79
2023/08/22 02:35:27;;;;;;;19.85;14.68;;;;;;;28.18;49.98;101345.84;6170627;23;20083;-79
2023/08/22 02:37:53;;;;;;;19.15;15.75;;;;;;;28.23;49.83;101358.75;6127660;23;20327;-78
2023/08/22 02:40:26;;;;;;;25.20;16.00;;;;;;;28.16;50.18;101353.44;6139216;23;20479;-78
2023/08/22 02:42:55;;;;;;;23.08;16.10;;;;;;;28.12;50.27;101346.78;6133268;23;20052;-78
2023/08/22 02:45:22;;;;;;;19.90;15.38;;;;;;;28.17;50.48;101376.94;6150747;23;20024;-79
2023/08/22 02:47:49;;;;;;;19.15;15.65;;;;;;;27.98;50.05;101351.59;6148784;23;20532;-79
2023/08/22 02:50:18;;;;;;;23.90;15.98;;;;;;;28.02;50.09;101368.38;6138900;23;20523;-80
2023/08/22 02:52:50;;;;;;;20.02;15.68;;;;;;;28.03;50.43;101375.47;6141569;23;20337;-81
2023/08/22 02:55:18;;;;;;;23.33;16.95;;;;;;;27.98;50.18;101362.53;6165159;23;20023;-79
2023/08/22 02:57:49;;;;;;;23.58;16.60;;;;;;;27.88;49.70;101351.34;6129973;23;20456;-81
2023/08/22 03:00:18;;;;;;;29.77;15.95;;;;;;;27.64;49.84;101317.69;6098034;23;20016;-80
2023/08/22 03:02:44;;;;;;;20.05;15.50;;;;;;;27.78;50.27;101351.06;6157875;23;20079;-78
2023/08/22 03:05:16;;;;;;;20.58;16.05;;;;;;;27.77;50.41;101358.44;6147515;23;20063;-79
2023/08/22 03:07:50;;;;;;;19.00;16.00;;;;;;;27.62;50.40;101330.72;6148555;23;20043;-79
2023/08/22 03:10:19;;;;;;;27.48;16.55;;;;;;;27.78;50.31;101365.53;6141779;23;20020;-78
2023/08/22 03:12:50;;;;;;;20.80;15.27;;;;;;;27.71;50.56;101356.63;6153528;23;20090;-80
2023/08/22 03:15:22;;;;;;;24.48;15.85;;;;;;;27.69;50.74;101361.47;6113703;23;20279;-79
2023/08/22 03:17:52;;;;;;;23.92;16.40;;;;;;;27.22;50.67;101288.50;6132550;23;20426;-79
2023/08/22 03:20:19;;;;;;;23.27;16.95;;;;;;;27.60;50.92;101349.22;6142330;23;20051;-79
2023/08/22 03:22:46;;;;;;;20.45;15.13;;;;;;;27.64;50.54;101356.69;6146574;23;20528;-80
2023/08/22 03:25:17;;;;;;;24.20;17.40;;;;;;;27.69;50.80;101347.81;6134816;23;20078;-79
2023/08/22 03:27:44;;;;;;;22.85;17.20;;;;;;;27.69;50.81;101361.47;6173443;23;20020;-79
2023/08/22 03:30:11;;;;;;;37.40;16.55;;;;;;;27.52;50.35;101335.91;6147152;23;20021;-79
2023/08/22 03:32:42;;;;;;;22.80;15.65;;;;;;;27.56;50.69;101354.31;6153245;23;20017;-80
2023/08/22 03:35:15;;;;;;;20.17;15.65;;;;;;;27.59;50.71;101353.84;6170216;23;20412;-78
2023/08/22 03:37:41;;;;;;;18.92;15.30;;;;;;;27.67;50.42;101358.13;6140565;23;20079;-78
2023/08/22 03:40:14;;;;;;;26.85;16.00;;;;;;;27.49;50.35;101321.66;6125613;23;20020;-79
2023/08/22 03:42:49;;;;;;;27.20;15.63;;;;;;;27.73;50.56;101364.56;6129790;23;20281;-80
2023/08/22 03:45:18;;;;;;;20.63;16.27;;;;;;;27.64;50.32;101364.06;6161205;23;20027;-78
2023/08/22 03:47:45;;;;;;;21.80;15.80;;;;;;;27.56;50.26;101348.03;6149326;23;20023;-80
2023/08/22 03:50:12;;;;;;;20.80;15.02;;;;;;;27.63;50.51;101354.22;6143611;23;20023;-78
2023/08/22 03:52:43;;;;;;;18.52;14.68;;;;;;;27.61;50.06;101356.34;6162637;23;20075;-78
2023/08/22 03:55:14;;;;;;;21.48;16.52;;;;;;;27.64;50.95;101367.59;6142755;23;20087;-80
2023/08/22 03:57:44;;;;;;;23.05;16.52;;;;;;;27.60;50.56;101365.56;6137832;23;20329;-79
2023/08/22 04:00:11;;;;;;;21.52;16.05;;;;;;;27.60;50.57;101360.13;6135321;23;20161;-79
2023/08/22 04:02:38;;;;;;;20.85;15.70;;;;;;;27.70;50.86;101376.78;6126580;23;20355;-81
2023/08/22 04:05:05;;;;;;;26.48;17.40;;;;;;;27.22;50.98;101306.75;6115342;23;20208;-78
2023/08/22 04:07:32;;;;;;;23.23;17.27;;;;;;;27.62;51.12;101382.53;6127144;23;20021;-79
2023/08/22 04:10:02;;;;;;;25.65;18.13;;;;;;;27.59;51.51;101380.28;6141025;23;20104;-79
2023/08/22 04:12:29;;;;;;;25.52;16.13;;;;;;;27.29;51.71;101332.03;6111517;23;20024;-77
2023/08/22 04:14:56;;;;;;;20.10;15.52;;;;;;;27.56;52.37;101369.84;6103360;23;20095;-79
2023/08/22 04:17:23;;;;;;;21.60;16.63;;;;;;;27.69;51.32;101389.56;6136695;23;20032;-78
2023/08/22 04:19:50;;;;;;;23.40;17.17;;;;;;;27.71;50.90;101397.53;6128165;23;20441;-81
2023/08/22 04:22:19;;;;;;;25.58;16.60;;;;;;;27.14;52.29;101307.03;6150202;23;20571;-79
2023/08/22 04:24:45;;;;;;;20.75;16.40;;;;;;;27.68;54.00;101389.81;6147021;23;20021;-78
2023/08/22 04:27:12;;;;;;;21.48;16.77;;;;;;;27.60;54.78;101330.13;6132656;23;20021;-79
2023/08/22 04:29:39;;;;;;;22.90;17.40;;;;;;;28.01;53.07;101393.97;6140657;23;20071;-78
2023/08/22 04:32:08;;;;;;;24.75;16.67;;;;;;;27.96;50.48;101397.41;6142537;23;20395;-80
2023/08/22 04:34:35;;;;;;;24.80;17.38;;;;;;;27.48;51.93;101341.84;6152963;23;20023;-78
2023/08/22 04:37:04;;;;;;;26.92;17.58;;;;;;;27.72;51.02;101401.94;6159243;23;20091;-80
2023/08/22 04:39:30;;;;;;;28.60;16.13;;;;;;;27.62;53.07;101368.91;6151372;23;20413;-79
2023/08/22 04:41:57;;;;;;;21.77;16.00;;;;;;;27.82;52.19;101388.59;6163320;23;20032;-79
2023/08/22 04:44:25;;;;;;;23.75;17.80;;;;;;;27.09;52.85;101253.25;6139747;23;20021;-78
2023/08/22 04:46:52;;;;;;;21.15;16.85;;;;;;;27.90;50.82;101404.63;6122431;23;20393;-78
2023/08/22 04:49:19;;;;;;;23.73;17.45;;;;;;;27.73;50.96;101392.69;6155920;23;20024;-78
2023/08/22 04:51:45;;;;;;;22.58;17.25;;;;;;;27.49;51.57;101380.84;6132879;23;20028;-79
2023/08/22 04:54:12;;;;;;;24.52;17.30;;;;;;;27.41;51.73;101395.63;6147245;23;20057;-79
2023/08/22 04:56:39;;;;;;;33.25;17.13;;;;;;;27.20;51.97;101380.56;6159925;23;20337;-79
2023/08/22 04:59:06;;;;;;;29.17;19.33;;;;;;;27.16;52.55;101394.84;6136827;23;20285;-79
2023/08/22 05:01:33;;;;;;;28.48;19.42;;;;;;;26.39;52.67;101294.47;6112951;23;20215;-79
2023/08/22 05:04:00;;;;;;;27.13;16.98;;;;;;;26.90;52.95;101410.44;6117244;23;20067;-78
2023/08/22 05:06:26;;;;;;;26.10;19.00;;;;;;;26.86;53.37;101411.94;6131675;23;20378;-80
2023/08/22 05:08:53;;;;;;;25.77;18.67;;;;;;;26.81;53.82;101415.31;6143797;23;20021;-79
2023/08/22 05:11:21;;;;;;;30.15;17.88;;;;;;;26.78;53.45;101417.69;6137311;23;20101;-79
2023/08/22 05:13:48;;;;;;;23.95;18.05;;;;;;;26.67;54.00;101404.78;6168167;23;20017;-79
2023/08/22 05:16:14;;;;;;;25.40;16.17;;;;;;;26.55;54.51;101393.78;6138146;23;20367;-78
2023/08/22 05:18:41;;;;;;;24.23;17.27;;;;;;;26.67;55.16;101404.78;6155330;23;20551;-80
2023/08/22 05:21:10;;;;;;;30.58;19.17;;;;;;;26.55;55.28;101381.00;6128537;23;20029;-79
2023/08/22 05:23:40;;;;;;;31.27;19.70;;;;;;;26.53;54.83;101376.81;6137772;23;20028;-79
2023/08/22 05:26:10;;;;;;;26.70;18.17;;;;;;;26.80;54.78;101415.56;6148425;23;20017;-80
2023/08/22 05:28:37;;;;;;;23.50;18.95;;;;;;;26.41;55.27;101346.78;6162068;23;20036;-79
2023/08/22 05:31:04;;;;;;;23.95;17.77;;;;;;;25.85;55.17;101255.13;6153831;23;20324;-78
2023/08/22 05:33:30;;;;;;;29.35;18.55;;;;;;;26.77;55.08;101394.22;6129747;23;20021;-79
2023/08/22 05:35:57;;;;;;;24.85;17.95;;;;;;;26.96;55.40;101420.41;6148783;23;20461;-78
2023/08/22 05:38:27;;;;;;;30.08;18.85;;;;;;;26.88;55.46;101392.66;6130256;23;20020;-81
2023/08/22 05:40:53;;;;;;;29.35;17.92;;;;;;;26.76;54.97;101368.88;6129067;23;20021;-79
2023/08/22 05:43:20;;;;;;;26.33;18.10;;;;;;;27.09;54.85;101422.19;6140983;23;20033;-80
2023/08/22 05:45:46;;;;;;;26.60;17.08;;;;;;;27.09;54.83;101414.00;6115648;23;20035;-79
2023/08/22 05:48:16;;;;;;;27.95;18.38;;;;;;;26.98;54.53;101398.41;6147627;23;20080;-78
2023/08/22 05:50:43;;;;;;;23.13;18.25;;;;;;;27.17;53.71;101404.69;6140570;23;20020;-79
2023/08/22 05:53:14;;;;;;;23.38;16.42;;;;;;;27.36;54.58;101411.84;6150911;23;20048;-79
2023/08/22 05:55:42;;;;;;;27.13;16.08;;;;;;;27.61;52.99;101432.72;6142189;23;20024;-81
2023/08/22 05:58:09;;;;;;;28.02;18.05;;;;;;;27.49;52.60;101403.47;6134157;23;20025;-79
2023/08/22 06:00:37;;;;;;;19.25;16.60;;;;;;;27.80;53.10;101444.44;6129913;23;20503;-79
2023/08/22 06:03:07;;;;;;;26.10;16.92;;;;;;;27.53;51.92;101398.41;6142227;23;20029;-80
2023/08/22 06:05:35;;;;;;;35.33;17.63;;;;;;;27.79;51.24;101431.81;6160086;23;20256;-79
2023/08/22 06:08:04;;;;;;;29.33;16.65;;;;;;;27.70;50.67;101420.44;6143420;23;20055;-80
2023/08/22 06:10:33;;;;;;;24.93;16.30;;;;;;;27.80;50.84;101445.25;6144160;23;20021;-79
2023/08/22 06:13:04;;;;;;;25.23;17.15;;;;;;;27.83;50.87;101436.63;6161153;23;20264;-80
2023/08/22 06:15:35;;;;;;;21.70;16.80;;;;;;;27.71;50.20;101419.34;6147522;23;20051;-80
2023/08/22 06:18:02;;;;;;;21.20;16.40;;;;;;;27.46;50.72;101386.75;6151189;23;20504;-78
2023/08/22 06:20:29;;;;;;;21.00;17.13;;;;;;;27.86;50.53;101438.88;6149076;23;20825;-79
2023/08/22 06:22:56;;;;;;;21.35;15.80;;;;;;;27.75;50.43;101417.84;6145122;23;20017;-78
2023/08/22 06:25:22;;;;;;;23.45;16.42;;;;;;;27.95;49.98;101435.84;6135569;23;20175;-79
2023/08/22 06:27:55;;;;;;;20.13;16.20;;;;;;;27.90;49.52;101421.00;6157553;23;20027;-80
2023/08/22 06:30:23;;;;;;;21.88;16.88;;;;;;;27.94;49.72;101425.97;6158381;23;20392;-79
2023/08/22 06:32:55;;;;;;;23.65;16.42;;;;;;;28.13;50.12;101438.50;6138627;23;20025;-80
2023/08/22 06:35:28;;;;;;;21.27;16.25;;;;;;;28.10;50.22;101447.16;6159174;23;20028;-80
2023/08/22 06:37:56;;;;;;;21.70;15.73;;;;;;;28.23;49.60;101444.25;6132014;23;20327;-80
2023/08/22 06:40:23;;;;;;;22.73;15.98;;;;;;;28.15;49.50;101430.91;6154265;23;20040;-79
2023/08/22 06:42:50;;;;;;;28.85;16.92;;;;;;;28.08;49.50;101417.34;6138421;23;20864;-79
2023/08/22 06:45:24;;;;;;;25.05;17.27;;;;;;;28.39;49.11;101436.44;6137490;23;20274;-81
2023/08/22 06:47:51;;;;;;;26.75;17.42;;;;;;;28.29;49.54;101418.72;6126407;23;20338;-80
2023/08/22 06:50:18;;;;;;;19.23;15.77;;;;;;;28.56;48.92;101448.38;6127827;23;20032;-80
2023/08/22 06:52:46;;;;;;;24.48;15.98;;;;;;;28.46;49.45;101429.81;6143509;23;20020;-80
2023/08/22 06:55:13;;;;;;;18.60;16.10;;;;;;;28.56;48.52;101418.31;6130791;23;20085;-80
2023/08/22 06:57:46;;;;;;;22.75;15.85;;;;;;;28.77;48.02;101442.31;6141315;23;20013;-81
2023/08/22 07:00:18;;;;;;;27.30;17.17;;;;;;;28.79;47.85;101443.97;6122955;23;20029;-81
2023/08/22 07:02:46;;;;;;;23.42;16.08;;;;;;;28.51;47.98;101382.69;6163396;23;20526;-81
2023/08/22 07:05:14;;;;;;;19.83;17.33;;;;;;;28.82;47.95;101419.75;6133133;23;20035;-80
2023/08/22 07:07:41;;;;;;;22.70;16.52;;;;;;;29.02;48.04;101443.97;6135775;23;20813;-79
2023/08/22 07:10:12;;;;;;;22.00;16.88;;;;;;;29.01;47.90;101442.31;6132061;23;20344;-81
2023/08/22 07:12:42;;;;;;;;;;;;;;;29.11;47.61;101450.78;6157969;23;20055;-80
2023/08/22 07:15:10;;;;;;;25.80;17.83;;;;;;;29.23;47.34;101439.00;6169002;23;19923;-80
2023/08/22 07:17:37;;;;;;;20.58;15.73;;;;;;;29.31;47.86;101452.28;6158031;23;20016;-79
2023/08/22 07:20:07;;;;;;;29.23;17.02;;;;;;;29.12;46.73;101427.81;6150511;23;20468;-79
2023/08/22 07:22:33;;;;;;;21.98;16.75;;;;;;;29.36;46.49;101455.13;6163332;23;20103;-81
2023/08/22 07:25:00;;;;;;;22.23;16.08;;;;;;;29.32;46.91;101446.59;6145570;23;20024;-80
2023/08/22 07:27:27;;;;;;;21.90;15.65;;;;;;;29.39;47.40;101455.47;6154572;23;20016;-82
2023/08/22 07:29:54;;;;;;;23.98;16.83;;;;;;;29.43;46.58;101447.63;6142484;23;20024;-79
2023/08/22 07:32:25;;;;;;;25.25;17.13;;;;;;;29.37;47.03;101434.91;6160858;23;20028;-80
2023/08/22 07:34:53;;;;;;;22.90;17.23;;;;;;;29.46;46.24;101433.44;6135152;23;20027;-81
2023/08/22 07:37:20;;;;;;;27.42;16.95;;;;;;;29.64;46.39;101457.09;6131914;23;20025;-80
2023/08/22 07:39:46;;;;;;;23.25;16.88;;;;;;;29.28;46.61;101389.88;6148136;23;20313;-81
2023/08/22 07:42:18;;;;;;;22.00;16.60;;;;;;;29.73;46.17;101460.28;6139722;23;20024;-81
2023/08/22 07:44:51;;;;;;;19.15;15.63;;;;;;;29.82;46.34;101467.03;6142347;23;20340;-80
2023/08/22 07:47:18;;;;;;;21.58;16.92;;;;;;;29.88;45.35;101474.28;6160134;23;20280;-80
2023/08/22 07:49:50;;;;;;;20.60;15.52;;;;;;;29.91;44.86;101462.00;6142811;23;20017;-80
2023/08/22 07:52:17;;;;;;;24.23;16.60;;;;;;;29.85;45.88;101452.84;6124795;23;20375;-79
2023/08/22 07:54:45;;;;;;;21.27;15.20;;;;;;;29.88;45.83;101463.34;6132228;23;20024;-81
2023/08/22 07:57:12;;;;;;;20.48;15.70;;;;;;;29.98;45.65;101476.38;6164351;23;20082;-82
2023/08/22 07:59:50;;;;;;;26.48;16.10;;;;;;;30.06;44.48;101465.03;6121370;23;20348;-81
2023/08/22 08:02:19;;;;;;;23.40;16.10;;;;;;;30.01;45.38;101473.97;6137974;23;20017;-80
2023/08/22 08:05:32;;;;;;;20.40;16.65;;;;;;;30.01;46.61;101473.97;6126757;23;20031;-80
2023/08/22 08:08:55;;;;;;;28.23;16.90;;;;;;;30.06;47.09;101475.97;6069178;23;20113;-80
2023/08/22 08:12:07;;;;;;;21.85;16.42;;;;;;;29.93;44.99;101444.28;6106400;23;20905;-79
2023/08/22 08:18:48;;;;;;;21.05;16.50;;;;;;;30.37;45.99;101455.47;6129856;23;20116;-80
2023/08/22 08:21:37;;;;;;;18.25;16.33;;;;;;;30.39;45.25;101455.22;6110747;23;20082;-79
2023/08/22 08:24:08;;;;;;;23.98;17.05;;;;;;;30.13;45.84;101434.75;6130709;23;20020;-79
2023/08/22 08:26:35;;;;;;;22.00;17.02;;;;;;;30.38;45.62;101443.44;6147000;23;20020;-79
2023/08/22 08:29:06;;;;;;;26.55;16.25;;;;;;;30.47;45.11;101467.69;6152778;23;20473;-81
2023/08/22 08:31:39;;;;;;;21.98;16.50;;;;;;;30.56;45.47;101471.66;6148602;23;20100;-79
2023/08/22 08:34:06;;;;;;;27.02;15.90;;;;;;;30.53;45.68;101464.75;6126305;23;20048;-81
2023/08/22 08:36:33;;;;;;;24.23;17.10;;;;;;;30.71;45.69;101466.44;6123138;23;20713;-80
2023/08/22 08:39:04;;;;;;;20.60;15.85;;;;;;;30.63;46.34;101459.47;6169401;23;20204;-80
2023/08/22 08:41:33;;;;;;;25.75;17.15;;;;;;;30.39;45.61;101427.81;6156219;23;20191;-80
2023/08/22 08:44:05;;;;;;;19.38;17.15;;;;;;;30.60;45.50;101464.59;6156041;23;20378;-78
2023/08/22 08:46:36;;;;;;;20.10;15.77;;;;;;;30.04;45.95;101342.06;6127097;23;20016;-78
2023/08/22 08:49:05;;;;;;;19.25;16.25;;;;;;;30.67;45.88;101448.84;6139671;23;20016;-79
2023/08/22 08:51:33;;;;;;;24.80;15.88;;;;;;;30.87;45.29;101468.34;6131539;23;20103;-78
2023/08/22 08:54:04;;;;;;;22.83;16.63;;;;;;;30.94;44.98;101461.88;6136160;23;20079;-81
2023/08/22 08:56:31;;;;;;;22.25;15.63;;;;;;;30.92;46.38;101469.50;6128152;23;20032;-78
2023/08/22 08:59:01;;;;;;;20.45;15.00;;;;;;;30.86;45.19;101463.97;6142485;23;20095;-80
2023/08/22 09:01:29;;;;;;;22.23;16.77;;;;;;;30.89;45.68;101462.63;6158442;23;20020;-79
2023/08/22 09:03:56;;;;;;;22.85;16.33;;;;;;;30.87;45.95;101446.41;6137129;23;20040;-79
2023/08/22 09:06:24;;;;;;;22.73;17.35;;;;;;;30.81;45.97;101409.03;6134815;23;20764;-79
2023/08/22 09:09:04;;;;;;;23.88;16.02;;;;;;;30.93;45.42;101408.13;6140518;23;20027;-79
2023/08/22 09:11:31;;;;;;;26.65;16.67;;;;;;;31.15;45.13;101444.63;6142637;23;20052;-79
2023/08/22 09:14:04;;;;;;;23.98;17.02;;;;;;;30.81;46.60;101406.28;6135699;23;20095;-79
2023/08/22 09:16:32;;;;;;;25.30;16.77;;;;;;;30.98;44.20;101419.16;6117605;23;20334;-79
2023/08/22 09:18:59;;;;;;;33.92;16.67;;;;;;;31.08;45.26;101409.16;6117268;23;20047;-79
2023/08/22 09:21:31;;;;;;;25.65;16.70;;;;;;;31.44;45.69;101452.72;6103799;23;20231;-80
2023/08/22 09:24:08;;;;;;;22.10;16.77;;;;;;;31.48;44.70;101442.88;6153167;23;20456;-80
2023/08/22 09:26:39;;;;;;;25.10;16.67;;;;;;;31.58;44.52;101428.44;6128772;23;20104;-78
2023/08/22 09:29:07;;;;;;;22.52;16.25;;;;;;;31.83;43.79;101427.91;6146779;23;20411;-79
2023/08/22 09:31:35;;;;;;;20.98;17.02;;;;;;;32.01;43.21;101437.72;6125964;23;20315;-79
2023/08/22 09:34:08;;;;;;;20.80;16.02;;;;;;;32.08;43.13;101439.16;6133647;23;20338;-80
2023/08/22 09:36:47;;;;;;;22.42;17.02;;;;;;;32.23;42.76;101427.47;6144786;23;20536;-78
2023/08/22 09:39:17;;;;;;;34.33;18.60;;;;;;;32.45;42.46;101427.38;6136647;23;20232;-79
2023/08/22 09:41:44;;;;;;;28.17;17.55;;;;;;;32.66;41.92;101436.63;6140608;23;20476;-79
2023/08/22 09:44:18;;;;;;;20.77;15.35;;;;;;;32.61;43.42;101435.78;6102243;23;20230;-79
2023/08/22 09:47:02;;;;;;;25.08;16.20;;;;;;;32.66;43.26;101428.38;6070130;23;20453;-80
2023/08/22 09:49:46;;;;;;;24.65;15.57;;;;;;;32.36;44.06;101423.47;6071180;23;20219;-80
2023/08/22 09:52:22;;;;;;;22.80;16.88;;;;;;;32.28;43.93;101421.19;6075916;23;20220;-80
2023/08/22 09:54:57;;;;;;;22.05;16.63;;;;;;;32.10;44.07;101422.44;6150962;23;20489;-80
2023/08/22 09:57:37;;;;;;;25.50;16.95;;;;;;;32.22;43.29;101392.88;6137173;23;20028;-79
2023/08/22 10:00:18;;;;;;;27.55;16.63;;;;;;;32.72;43.89;101419.09;6070339;23;20049;-78
2023/08/22 10:02:49;;;;;;;20.20;17.70;;;;;;;32.40;43.66;101410.84;6048800;23;20497;-80
2023/08/22 10:05:30;;;;;;;22.70;16.13;;;;;;;32.53;44.10;101404.13;6104981;23;20406;-79
2023/08/22 10:08:02;;;;;;;24.00;17.70;;;;;;;32.40;43.73;101410.84;6117260;23;20021;-78
2023/08/22 10:10:37;;;;;;;19.80;17.40;;;;;;;32.74;42.20;101394.06;6106143;23;20359;-81
2023/08/22 10:13:17;;;;;;;26.30;18.05;;;;;;;33.12;41.36;101397.59;6111878;23;20319;-79
2023/08/22 10:15:45;;;;;;;24.65;17.17;;;;;;;33.11;41.65;101383.03;6116415;23;20097;-78
2023/08/22 10:18:14;;;;;;;20.33;16.15;;;;;;;33.31;42.08;101387.78;6108057;23;20272;-79
2023/08/22 10:20:44;;;;;;;;;;;;;;;32.90;42.43;101398.56;6108754;23;20516;-79
2023/08/22 10:23:11;;;;;;;22.60;15.95;;;;;;;32.76;43.28;101373.47;6096113;23;19944;-78
2023/08/22 10:25:54;;;;;;;29.70;18.02;;;;;;;32.75;42.76;101385.56;6072467;23;20148;-80
2023/08/22 10:28:35;;;;;;;19.95;16.58;;;;;;;33.19;42.00;101389.94;6080359;23;20313;-80
2023/08/22 10:31:05;;;;;;;21.83;15.48;;;;;;;33.31;42.24;101387.78;6120364;23;20344;-78
2023/08/22 10:33:39;;;;;;;28.30;16.27;;;;;;;33.18;41.19;101356.09;6107519;23;20031;-80
2023/08/22 10:36:22;;;;;;;24.48;17.95;;;;;;;33.48;40.20;101386.72;6090309;23;20339;-79
2023/08/22 10:39:03;;;;;;;19.58;16.75;;;;;;;33.44;39.74;101347.91;6073519;23;20168;-80
2023/08/22 10:41:56;;;;;;;;;;;;;;;33.77;39.66;101385.16;6081422;23;20371;-79
2023/08/22 10:44:36;;;;;;;20.88;15.57;;;;;;;33.74;40.26;101376.59;6075649;23;19979;-79
2023/08/22 10:47:19;;;;;;;19.27;16.50;;;;;;;33.73;40.18;101373.03;6126620;23;20567;-78
2023/08/22 10:49:52;;;;;;;24.98;16.50;;;;;;;33.80;39.89;101373.59;6133463;23;20029;-80
2023/08/22 10:52:39;;;;;;;23.67;16.08;;;;;;;33.67;39.85;101345.75;6096113;23;20426;-80
2023/08/22 10:55:14;;;;;;;19.50;15.05;;;;;;;34.00;40.66;101366.44;6076933;23;20516;-79
2023/08/22 10:57:45;;;;;;;22.30;15.80;;;;;;;33.93;40.58;101365.88;6131476;23;20028;-79
2023/08/22 11:00:22;;;;;;;21.25;18.00;;;;;;;33.42;40.85;101319.81;6093507;23;20237;-80
2023/08/22 11:02:56;;;;;;;18.92;16.35;;;;;;;33.98;38.72;101358.44;6118415;23;20303;-77
2023/08/22 11:05:23;;;;;;;21.83;15.52;;;;;;;34.12;40.34;101353.25;6137505;23;20192;-80
2023/08/22 11:07:51;;;;;;;19.40;15.82;;;;;;;34.31;39.09;101360.97;6116697;23;20055;-77
2023/08/22 11:10:23;;;;;;;22.10;16.05;;;;;;;34.37;38.33;101338.63;6141953;23;20106;-78
2023/08/22 11:12:58;;;;;;;16.52;14.27;;;;;;;34.69;39.35;101340.22;6094786;23;20232;-79
2023/08/22 11:15:36;;;;;;;20.10;15.90;;;;;;;34.62;37.97;101335.00;6086232;23;20027;-80
2023/08/22 11:18:09;;;;;;;19.52;16.98;;;;;;;34.56;38.44;101330.56;6104707;23;20263;-79
2023/08/22 11:20:42;;;;;;;17.70;15.77;;;;;;;34.94;38.12;101331.03;6062111;23;20564;-77
2023/08/22 11:23:16;;;;;;;20.52;16.50;;;;;;;34.92;38.38;101322.19;6098619;23;20017;-78
2023/08/22 11:25:43;;;;;;;25.98;16.98;;;;;;;35.09;37.83;101333.72;6104192;23;20184;-78
2023/08/22 11:28:29;;;;;;;19.48;15.63;;;;;;;35.36;37.99;101334.41;6046775;23;20024;-77